createdAt,value
2018-06-21T00:16:29.347Z,872.57
2018-06-21T00:19:10.027Z,857.57
2018-06-21T00:21:51.384Z,818.93
2018-06-21T00:24:32.745Z,699.97
2018-06-21T00:27:13.967Z,872.80
2018-06-21T00:29:56.246Z,911.43
2018-06-21T00:32:37.428Z,999.90
2018-06-21T00:35:19.150Z,999.90
2018-06-21T00:37:59.264Z,999.90
2018-06-21T00:40:36.906Z,999.90
2018-06-21T00:43:16.727Z,993.00
2018-06-21T00:45:57.702Z,999.90
2018-06-21T00:48:37.469Z,689.13
2018-06-21T00:51:18.785Z,648.67
2018-06-21T02:17:23.199Z,840.07
2018-06-21T02:20:02.843Z,895.33
2018-06-21T02:22:43.362Z,891.23
2018-06-21T02:25:23.165Z,854.90
2018-06-21T02:28:05.398Z,873.70
2018-06-21T02:30:45.145Z,923.70
2018-06-21T02:33:25.539Z,951.47
2018-06-21T02:36:05.981Z,960.83
2018-06-21T02:38:44.837Z,999.90
2018-06-21T02:41:25.619Z,999.90
2018-06-21T02:44:05.599Z,968.83
2018-06-21T02:46:44.597Z,999.90
2018-06-21T02:49:24.859Z,999.90
2018-06-21T02:52:04.440Z,999.90
2018-06-21T02:54:44.359Z,999.90
2018-06-21T02:57:23.743Z,999.90
2018-06-21T03:00:04.136Z,999.90
2018-06-21T03:02:43.259Z,925.77
2018-06-21T03:05:24.163Z,888.73
2018-06-21T03:08:04.202Z,937.60
2018-06-21T03:10:46.619Z,857.13
2018-06-21T03:13:26.801Z,894.70
2018-06-21T03:16:08.658Z,944.73
2018-06-21T03:18:54.419Z,930.13
2018-06-21T03:21:34.064Z,903.87
2018-06-21T03:24:13.083Z,883.80
2018-06-21T03:26:54.518Z,928.73
2018-06-21T03:29:34.659Z,940.30
2018-06-21T03:32:14.724Z,883.83
2018-06-21T03:34:52.117Z,929.57
2018-06-21T03:37:32.024Z,935.33
2018-06-21T03:40:14.621Z,947.67
2018-06-21T03:42:53.919Z,884.60
2018-06-21T03:45:35.205Z,943.80
2018-06-21T03:48:14.282Z,903.50
2018-06-21T03:50:53.639Z,876.17
2018-06-21T03:53:36.380Z,785.93
2018-06-21T03:56:19.745Z,807.87
2018-06-21T03:58:59.840Z,772.10
2018-06-21T04:01:41.156Z,763.03
2018-06-21T04:04:20.503Z,805.70
2018-06-21T04:07:04.916Z,802.63
2018-06-21T04:09:49.239Z,804.43
2018-06-21T04:12:31.365Z,831.17
2018-06-21T04:15:14.896Z,880.17
2018-06-21T04:17:58.261Z,861.83
2018-06-21T04:20:40.400Z,852.20
2018-06-21T04:23:19.755Z,863.73
2018-06-21T04:26:01.638Z,837.07
2018-06-21T04:28:45.007Z,886.03
2018-06-21T04:31:25.561Z,931.90
2018-06-21T04:34:08.386Z,921.43
2018-06-21T04:36:49.001Z,867.53
2018-06-21T04:39:30.103Z,938.27
2018-06-21T04:42:10.581Z,909.37
2018-06-21T04:44:49.022Z,925.27
2018-06-21T04:47:30.882Z,910.70
2018-06-21T04:50:09.622Z,999.90
2018-06-21T04:52:54.241Z,894.83
2018-06-21T04:55:36.920Z,803.93
2018-06-21T06:33:53.402Z,668.43
2018-06-21T06:36:42.523Z,748.50
2018-06-21T06:39:26.279Z,562.40
2018-06-21T06:42:13.605Z,290.27
2018-06-21T06:44:58.606Z,317.47
2018-06-21T06:47:40.700Z,881.80
2018-06-21T06:50:20.202Z,968.13
2018-06-21T06:53:00.482Z,733.73
2018-06-21T06:55:38.982Z,703.37
2018-06-21T07:28:08.897Z,65.67
2018-06-21T08:42:34.543Z,198.40
2018-06-21T08:45:15.199Z,134.60
2018-06-21T08:47:54.282Z,160.28
2018-06-21T08:50:39.700Z,121.82
2018-06-21T08:53:19.959Z,115.92
2018-06-21T08:56:05.481Z,107.07
2018-06-21T08:58:46.205Z,99.50
2018-06-21T09:01:29.835Z,96.82
2018-06-21T09:04:12.847Z,99.55
2018-06-21T09:06:52.239Z,97.78
2018-06-21T09:09:33.283Z,100.22
2018-06-21T09:12:13.742Z,113.57
2018-06-21T09:14:58.903Z,102.90
2018-06-21T09:20:40.044Z,96.22
2018-06-21T09:23:18.286Z,82.97
2018-06-21T09:25:58.759Z,79.60
2018-06-21T09:28:43.442Z,73.17
2018-06-21T09:31:21.903Z,77.30
2018-06-21T09:34:01.617Z,94.03
2018-06-21T09:36:44.478Z,94.80
2018-06-21T09:39:30.883Z,102.22
2018-06-21T09:42:16.742Z,95.25
2018-06-21T09:45:04.426Z,113.85
2018-06-21T09:47:49.963Z,112.52
2018-06-21T09:50:30.719Z,90.12
2018-06-21T09:53:09.705Z,87.17
2018-06-21T09:55:52.561Z,81.17
2018-06-21T09:58:31.442Z,96.60
2018-06-21T10:01:15.745Z,110.30
2018-06-21T10:03:59.924Z,103.95
2018-06-21T10:06:50.119Z,92.37
2018-06-21T10:09:38.462Z,104.40
2018-06-21T10:12:20.942Z,83.72
2018-06-21T10:15:07.464Z,89.17
2018-06-21T10:17:46.785Z,101.45
2018-06-21T10:20:27.838Z,76.17
2018-06-21T10:23:15.442Z,56.40
2018-06-21T10:25:57.282Z,59.55
2018-06-21T10:28:36.506Z,55.50
2018-06-21T10:31:19.740Z,56.18
2018-06-21T10:34:01.606Z,59.30
2018-06-21T10:36:50.366Z,59.33
2018-06-21T10:39:33.978Z,57.53
2018-06-21T10:42:17.780Z,53.58
2018-06-21T10:44:57.958Z,54.35
2018-06-21T10:47:41.030Z,83.15
2018-06-21T10:50:26.202Z,68.10
2018-06-21T10:53:04.383Z,55.00
2018-06-21T10:55:50.322Z,59.23
2018-06-21T11:01:28.101Z,69.25
2018-06-21T11:04:12.142Z,61.80
2018-06-21T11:06:51.785Z,59.83
2018-06-21T11:09:32.701Z,66.50
2018-06-21T11:12:15.462Z,70.00
2018-06-21T11:14:55.504Z,56.40
2018-06-21T11:17:37.185Z,49.85
2018-06-21T11:20:16.024Z,51.88
2018-06-21T11:22:56.686Z,62.70
2018-06-21T12:07:06.911Z,49.05
2018-06-21T12:09:48.345Z,48.70
2018-06-21T12:12:27.544Z,53.83
2018-06-21T12:15:10.106Z,55.88
2018-06-21T12:17:50.718Z,56.85
2018-06-21T12:20:36.954Z,57.13
2018-06-21T12:23:22.982Z,54.42
2018-06-21T12:26:01.860Z,53.87
2018-06-21T12:28:39.642Z,57.78
2018-06-21T12:31:21.899Z,63.85
2018-06-21T12:34:04.941Z,60.73
2018-06-21T12:36:46.400Z,52.78
2018-06-21T12:39:28.741Z,47.90
2018-06-21T12:42:11.926Z,49.90
2018-06-21T12:44:53.865Z,49.63
2018-06-21T12:47:37.541Z,59.95
2018-06-21T12:50:25.680Z,61.13
2018-06-21T12:53:08.301Z,63.95
2018-06-21T12:55:48.961Z,68.42
2018-06-21T12:58:31.904Z,61.80
2018-06-21T13:01:20.943Z,72.90
2018-06-21T13:04:03.745Z,61.37
2018-06-21T13:06:51.467Z,62.38
2018-06-21T13:12:42.618Z,57.30
2018-06-21T13:15:24.330Z,55.17
2018-06-21T13:18:15.242Z,51.75
2018-06-21T13:20:55.761Z,53.90
2018-06-21T13:23:40.262Z,51.13
2018-06-21T13:26:18.780Z,49.35
2018-06-21T13:28:58.806Z,53.23
2018-06-21T13:31:42.524Z,48.50
2018-06-21T13:34:28.022Z,51.70
2018-06-21T13:37:17.163Z,53.60
2018-06-21T13:39:55.648Z,49.77
2018-06-21T13:42:38.803Z,52.35
2018-06-21T13:45:20.222Z,49.20
2018-06-21T13:48:01.159Z,49.93
2018-06-21T14:50:21.421Z,189.52
2018-06-21T14:53:10.859Z,198.00
2018-06-21T14:55:50.086Z,185.45
2018-06-21T14:58:36.745Z,203.27
2018-06-21T15:01:15.859Z,249.40
2018-06-21T15:03:59.443Z,231.00
2018-06-21T15:06:42.160Z,260.57
2018-06-21T15:09:33.500Z,271.87
2018-06-21T15:12:14.342Z,223.43
2018-06-21T15:14:57.228Z,243.30
2018-06-21T15:17:43.320Z,238.77
2018-06-21T15:20:24.520Z,278.27
2018-06-21T15:23:05.341Z,189.03
2018-06-21T15:25:48.084Z,205.92
2018-06-21T15:28:36.124Z,186.12
2018-06-21T15:31:19.577Z,179.47
2018-06-21T15:34:00.860Z,274.83
2018-06-21T15:36:47.659Z,234.00
2018-06-21T15:39:32.475Z,156.80
2018-06-21T15:42:11.604Z,133.47
2018-06-21T15:44:52.442Z,140.00
2018-06-21T15:47:34.881Z,91.55
2018-06-21T15:50:21.042Z,110.97
2018-06-21T15:53:06.944Z,85.60
2018-06-21T15:55:47.100Z,95.27
2018-06-21T15:58:26.155Z,109.67
2018-06-21T16:01:13.441Z,87.23
2018-06-21T16:03:52.062Z,87.13
2018-06-21T16:06:34.185Z,106.57
2018-06-21T16:09:16.888Z,126.67
2018-06-21T16:12:02.380Z,102.73
2018-06-21T16:14:54.649Z,138.67
2018-06-21T16:17:38.876Z,109.07
2018-06-21T16:20:20.579Z,560.80
2018-06-21T16:23:00.842Z,230.33
2018-06-21T16:25:41.248Z,354.53
2018-06-21T16:28:25.481Z,205.77
2018-06-21T16:31:02.860Z,357.93
2018-06-21T16:33:40.939Z,296.73
2018-06-21T16:36:26.342Z,189.47
2018-06-21T16:39:08.503Z,162.17
2018-06-21T16:41:52.843Z,106.13
2018-06-21T16:44:34.759Z,91.00
2018-06-21T16:47:19.002Z,99.37
2018-06-21T16:49:59.566Z,101.23
2018-06-21T16:52:41.880Z,73.50
2018-06-21T16:55:29.144Z,107.73
2018-06-21T16:58:41.455Z,69.13
2018-06-21T17:01:21.943Z,137.20
2018-06-21T17:04:00.879Z,103.40
2018-06-21T17:06:41.881Z,97.70
2018-06-21T17:09:21.798Z,102.40
2018-06-21T17:12:08.097Z,89.03
2018-06-21T17:14:49.019Z,68.57
2018-06-21T17:17:40.260Z,68.33
2018-06-21T17:20:21.565Z,50.20
2018-06-21T17:23:00.560Z,80.07
2018-06-21T17:25:41.859Z,111.17
2018-06-21T17:28:22.695Z,155.90
2018-06-21T17:31:04.303Z,161.27
2018-06-21T17:33:52.320Z,164.07
2018-06-21T17:36:35.783Z,185.07
2018-06-21T17:39:19.361Z,185.87
2018-06-21T17:41:58.474Z,125.37
2018-06-21T17:44:38.156Z,195.60
2018-06-21T17:47:23.281Z,281.63
2018-06-21T17:50:06.020Z,278.57
2018-06-21T17:52:45.979Z,241.67
2018-06-21T17:55:28.483Z,191.53
2018-06-21T17:58:08.738Z,228.83
2018-06-21T18:00:54.255Z,307.03
2018-06-21T18:03:35.535Z,382.10
2018-06-21T18:06:16.543Z,353.07
2018-06-21T18:08:58.386Z,340.07
2018-06-21T18:11:50.417Z,448.37
2018-06-21T18:14:31.201Z,425.33
2018-06-21T18:17:12.882Z,417.50
2018-06-21T18:19:53.680Z,406.83
2018-06-21T18:22:35.205Z,287.60
2018-06-21T18:25:21.664Z,423.30
2018-06-21T18:28:01.341Z,561.17
2018-06-21T18:30:43.139Z,509.47
2018-06-21T18:51:10.697Z,738.17
2018-06-21T18:53:51.703Z,772.37
2018-06-21T18:56:33.739Z,815.10
2018-06-21T18:59:12.403Z,840.43
2018-06-21T19:01:50.760Z,858.07
2018-06-21T19:04:33.180Z,846.77
2018-06-21T19:07:15.581Z,829.63
2018-06-21T19:10:01.462Z,809.77
2018-06-21T19:12:44.921Z,817.03
2018-06-21T21:59:25.546Z,508.03
2018-06-21T22:02:07.546Z,547.80
2018-06-21T22:04:50.540Z,556.93
2018-06-21T22:07:29.959Z,540.70
2018-06-21T22:10:15.280Z,549.13
2018-06-21T22:32:15.488Z,638.23
2018-06-21T22:34:56.881Z,603.43
2018-06-21T22:37:40.282Z,928.90
2018-06-21T22:40:23.701Z,825.03
2018-06-21T22:43:05.280Z,864.77
2018-06-21T22:45:48.037Z,794.70
2018-06-21T22:48:32.624Z,775.87
2018-06-21T22:51:15.887Z,755.47
2018-06-21T22:53:57.140Z,800.87
2018-06-21T22:56:39.100Z,400.07
2018-06-21T22:59:20.199Z,882.97
2018-06-21T23:02:03.241Z,875.37
2018-06-21T23:04:44.140Z,802.63
2018-06-21T23:07:25.797Z,713.03
2018-06-21T23:10:06.417Z,768.33
2018-06-21T23:12:51.945Z,737.83
2018-06-21T23:15:37.164Z,830.67
2018-06-21T23:18:17.415Z,581.97
2018-06-21T23:20:58.664Z,810.13
2018-06-21T23:23:42.724Z,670.43
2018-06-21T23:26:25.797Z,863.80
2018-06-21T23:29:12.262Z,999.90
2018-06-21T23:31:55.203Z,990.23
2018-06-21T23:34:38.146Z,999.90
2018-06-21T23:37:22.815Z,999.90
2018-06-21T23:40:04.006Z,999.90
2018-06-21T23:42:46.369Z,999.90
2018-06-21T23:45:32.981Z,999.90
2018-06-21T23:48:17.582Z,999.90
2018-06-21T23:50:58.941Z,999.90
2018-06-21T23:53:43.759Z,999.90
2018-06-21T23:56:29.179Z,999.90
2018-06-21T23:59:10.181Z,999.90
